Autopride — CQQE — position and weather

sailwx.info

Track history (hours):
 
Tides and Currents Weather Stations Pressure Air Temp Water Temp Dewpoint Dewpoint Depression Visibility Wind Speed Wind Dir Waves Ship Positions

Autopride

Last reported at 2016-May-04 14:33 UTC. Time now 2016-May-04 15:29 UTC.
Position N 53°29' E 005°05'.

Length 125 m; draft 4.8 m.

Type: Cargo ship. MMSI: 255801560.

Date/timePositionNaut miles runAvg speedWind from/ knotsBaromVisibWave heightAir tempDewpointWater temp
2016-May-04 14:33N 53°29' E 005°05'11 9.6
2016-May-04 13:27N 53°25' E 004°48'9 9.9
2016-May-04 12:33N 53°19' E 004°38'1110.1
2016-May-04 11:30N 53°09' E 004°30'9 9.3
2016-May-04 10:33N 53°02' E 004°23'9 8.8
2016-May-04 09:33N 52°54' E 004°16'9 8.7
2016-May-04 08:33N 52°47' E 004°08'9 8.7
2016-May-04 07:33N 52°40' E 003°58'8 7.3
2016-May-04 06:30N 52°35' E 003°49'9 9.0
2016-May-04 05:33N 52°29' E 003°39'10 9.6
2016-May-04 04:29N 52°21' E 003°28'4610.8
2016-May-04 00:14N 51°45' E 002°43'811.7
2016-May-03 23:33N 51°37' E 002°43'1211.6
2016-May-03 22:33N 51°25' E 002°43'1110.5
2016-May-03 21:33N 51°24' E 002°60'9 9.0
2016-May-03 20:33N 51°20' E 003°13'1 0.6
2016-May-03 19:31N 51°19' E 003°13'0 0.0
2016-May-03 18:28N 51°19' E 003°13'0 0.0
2016-May-03 17:28N 51°19' E 003°13'0 0.0
2016-May-03 16:31N 51°19' E 003°13'0 0.0
2016-May-03 15:31N 51°19' E 003°13'0 0.0
2016-May-03 14:33N 51°19' E 003°13'0 0.0
2016-May-03 13:33N 51°19' E 003°13'0 0.0
2016-May-03 12:33N 51°19' E 003°13'1 0.7
2016-May-03 11:33N 51°20' E 003°13'0 0.0
2016-May-03 10:33N 51°20' E 003°13'8 7.9
2016-May-03 09:33N 51°24' E 003°02'1514.6
2016-May-03 08:32N 51°21' E 002°39'2 0.2
2016-May-03 00:27N 51°20' E 002°36'0 0.0
2016-May-02 23:24N 51°20' E 002°36'0 0.0
2016-May-02 22:33N 51°20' E 002°36'0 0.0
2016-May-02 21:27N 51°20' E 002°36'0 0.0
2016-May-02 20:30N 51°20' E 002°36'0 0.0
2016-May-02 18:33N 51°20' E 002°36'0 0.0
2016-May-02 17:30N 51°20' E 002°36'0 0.2
2016-May-02 16:33N 51°20' E 002°36'0 0.0
2016-May-02 15:27N 51°20' E 002°36'0 0.1
2016-May-02 14:30N 51°20' E 002°36'0 0.0
2016-May-02 13:27N 51°20' E 002°36'0 0.0
2016-May-02 12:33N 51°20' E 002°36'0 0.0
2016-May-02 11:33N 51°20' E 002°36'0 0.0
2016-May-02 10:33N 51°20' E 002°36'0 0.0
2016-May-02 09:09N 51°20' E 002°36'0 0.0
2016-May-02 07:18N 51°20' E 002°36'0 0.0
2016-May-02 06:33N 51°20' E 002°36'0 0.0
2016-May-02 05:30N 51°20' E 002°36'0 0.1
2016-May-02 04:30N 51°20' E 002°36'0 0.0
2016-May-02 03:33N 51°20' E 002°36'0 0.0
2016-May-02 02:33N 51°20' E 002°36'0 0.1
2016-May-02 01:33N 51°20' E 002°36'0 0.0
2016-May-02 00:33N 51°20' E 002°36'0 0.0
2016-May-01 23:32N 51°20' E 002°36'0 0.0
2016-May-01 22:32N 51°20' E 002°36'0 0.0
2016-May-01 21:32N 51°20' E 002°36'0 0.0
2016-May-01 20:32N 51°20' E 002°36'0 0.0
2016-May-01 19:32N 51°20' E 002°36'0 0.0
2016-May-01 18:32N 51°20' E 002°36'0 0.1
2016-May-01 17:32N 51°20' E 002°36'0 0.0
2016-May-01 16:29N 51°20' E 002°36'0 0.0
2016-May-01 15:26N 51°20' E 002°36'0 0.0
2016-May-01 14:29N 51°20' E 002°36'0 0.0
2016-May-01 13:23N 51°20' E 002°36'1 0.9
2016-May-01 12:33N 51°20' E 002°35'9 9.2
2016-May-01 11:33N 51°19' E 002°20'1010.2
2016-May-01 10:33N 51°14' E 002°06'1110.6
2016-May-01 09:33N 51°09' E 001°51'1110.8
2016-May-01 08:33N 51°01' E 001°39'1211.8
2016-May-01 07:33N 50°52' E 001°27'4410.7
2016-May-01 03:25N 50°24' E 000°33'1012.0
2016-May-01 02:33N 50°22' E 000°17'1212.1
2016-May-01 01:34N 50°19' W 000°01'1211.9
2016-May-01 00:33N 50°15' W 000°19'1211.6
2016-Apr-30 23:33N 50°13' W 000°37'89 9.9
2016-Apr-30 14:33N 49°49' W 002°51'1111.3
2016-Apr-30 13:33N 49°44' W 003°06'1111.2
2016-Apr-30 12:33N 49°38' W 003°21'9011.0
2016-Apr-30 04:24N 48°52' W 005°19'359 8.7
2016-Apr-28 11:20N 43°21' W 001°57'390 8.6
2016-Apr-26 14:06N 49°46' W 003°25'713.4
2016-Apr-26 13:33N 49°50' W 003°15'1313.1
2016-Apr-26 12:33N 49°56' W 002°58'1211.8
2016-Apr-26 11:33N 50°00' W 002°40'9311.2
2016-Apr-26 03:11N 50°27' W 000°20'812.9
2016-Apr-26 02:33N 50°29' W 000°08'1212.2
2016-Apr-26 01:33N 50°33' E 000°11'1111.4
2016-Apr-26 00:33N 50°37' E 000°28'3411.0
2016-Apr-25 21:28N 50°56' E 001°12'1314.1
2016-Apr-25 20:33N 51°04' E 001°27'1616.0
2016-Apr-25 19:34N 51°15' E 001°47'1413.8
2016-Apr-25 18:33N 51°25' E 002°01'1313.4
2016-Apr-25 17:34N 51°22' E 002°22'1313.1
2016-Apr-25 16:33N 51°23' E 002°43'1414.5
2016-Apr-25 15:33N 51°22' E 003°06'5 4.5
2016-Apr-25 14:30N 51°20' E 003°13'1 0.6
2016-Apr-25 13:33N 51°19' E 003°13'0 0.0
2016-Apr-25 12:27N 51°19' E 003°13'0 0.0
2016-Apr-25 11:33N 51°19' E 003°13'0 0.0
2016-Apr-25 10:30N 51°19' E 003°13'0 0.0
2016-Apr-25 09:30N 51°19' E 003°13'0 0.0
2016-Apr-25 08:30N 51°19' E 003°13'0 0.0
2016-Apr-25 07:26N 51°19' E 003°13'0 0.0
2016-Apr-25 06:32N 51°19' E 003°13'1 0.7
2016-Apr-25 05:31N 51°19' E 003°13'0 0.0
2016-Apr-25 04:31N 51°19' E 003°13'0 0.0
2016-Apr-25 03:31N 51°19' E 003°13'0 0.0
2016-Apr-25 02:31N 51°19' E 003°13'0 0.0
2016-Apr-25 01:28N 51°19' E 003°13'0 0.0
2016-Apr-25 00:31N 51°19' E 003°13'0 0.0
2016-Apr-24 23:31N 51°19' E 003°13'0 0.0
2016-Apr-24 22:28N 51°19' E 003°13'0 0.0
2016-Apr-24 21:31N 51°19' E 003°13'0 0.0
2016-Apr-24 20:33N 51°19' E 003°13'1 1.4
2016-Apr-24 19:33N 51°20' E 003°13'7 7.3
2016-Apr-24 18:32N 51°24' E 003°03'1414.0
2016-Apr-24 17:34N 51°22' E 002°42'1010.4
2016-Apr-24 16:33N 51°21' E 002°25'9 8.9
2016-Apr-24 15:33N 51°16' E 002°13'10 9.8
2016-Apr-24 14:33N 51°11' E 001°60'  
Track history (hours):
 
Tides and Currents Weather Stations Pressure Air Temp Water Temp Dewpoint Dewpoint Depression Visibility Wind Speed Wind Dir Waves Ship Positions

Autopride

Last reported at 2016-May-04 14:33 UTC. Time now 2016-May-04 15:29 UTC.
Position N 53°29' E 005°05'.

Length 125 m; draft 4.8 m.

Type: Cargo ship. MMSI: 255801560.

Date/timePositionNaut miles runAvg speedWind from/ knotsBaromVisibWave heightAir tempDewpointWater temp
2016-May-04 14:33N 53°29' E 005°05'11 9.6
2016-May-04 13:27N 53°25' E 004°48'9 9.9
2016-May-04 12:33N 53°19' E 004°38'1110.1
2016-May-04 11:30N 53°09' E 004°30'9 9.3
2016-May-04 10:33N 53°02' E 004°23'9 8.8
2016-May-04 09:33N 52°54' E 004°16'9 8.7
2016-May-04 08:33N 52°47' E 004°08'9 8.7
2016-May-04 07:33N 52°40' E 003°58'8 7.3
2016-May-04 06:30N 52°35' E 003°49'9 9.0
2016-May-04 05:33N 52°29' E 003°39'10 9.6
2016-May-04 04:29N 52°21' E 003°28'4610.8
2016-May-04 00:14N 51°45' E 002°43'811.7
2016-May-03 23:33N 51°37' E 002°43'1211.6
2016-May-03 22:33N 51°25' E 002°43'1110.5
2016-May-03 21:33N 51°24' E 002°60'9 9.0
2016-May-03 20:33N 51°20' E 003°13'1 0.6
2016-May-03 19:31N 51°19' E 003°13'0 0.0
2016-May-03 18:28N 51°19' E 003°13'0 0.0
2016-May-03 17:28N 51°19' E 003°13'0 0.0
2016-May-03 16:31N 51°19' E 003°13'0 0.0
2016-May-03 15:31N 51°19' E 003°13'0 0.0
2016-May-03 14:33N 51°19' E 003°13'0 0.0
2016-May-03 13:33N 51°19' E 003°13'0 0.0
2016-May-03 12:33N 51°19' E 003°13'1 0.7
2016-May-03 11:33N 51°20' E 003°13'0 0.0
2016-May-03 10:33N 51°20' E 003°13'8 7.9
2016-May-03 09:33N 51°24' E 003°02'1514.6
2016-May-03 08:32N 51°21' E 002°39'2 0.2
2016-May-03 00:27N 51°20' E 002°36'0 0.0
2016-May-02 23:24N 51°20' E 002°36'0 0.0
2016-May-02 22:33N 51°20' E 002°36'0 0.0
2016-May-02 21:27N 51°20' E 002°36'0 0.0
2016-May-02 20:30N 51°20' E 002°36'0 0.0
2016-May-02 18:33N 51°20' E 002°36'0 0.0
2016-May-02 17:30N 51°20' E 002°36'0 0.2
2016-May-02 16:33N 51°20' E 002°36'0 0.0
2016-May-02 15:27N 51°20' E 002°36'0 0.1
2016-May-02 14:30N 51°20' E 002°36'0 0.0
2016-May-02 13:27N 51°20' E 002°36'0 0.0
2016-May-02 12:33N 51°20' E 002°36'0 0.0
2016-May-02 11:33N 51°20' E 002°36'0 0.0
2016-May-02 10:33N 51°20' E 002°36'0 0.0
2016-May-02 09:09N 51°20' E 002°36'0 0.0
2016-May-02 07:18N 51°20' E 002°36'0 0.0
2016-May-02 06:33N 51°20' E 002°36'0 0.0
2016-May-02 05:30N 51°20' E 002°36'0 0.1
2016-May-02 04:30N 51°20' E 002°36'0 0.0
2016-May-02 03:33N 51°20' E 002°36'0 0.0
2016-May-02 02:33N 51°20' E 002°36'0 0.1
2016-May-02 01:33N 51°20' E 002°36'0 0.0
2016-May-02 00:33N 51°20' E 002°36'0 0.0
2016-May-01 23:32N 51°20' E 002°36'0 0.0
2016-May-01 22:32N 51°20' E 002°36'0 0.0
2016-May-01 21:32N 51°20' E 002°36'0 0.0
2016-May-01 20:32N 51°20' E 002°36'0 0.0
2016-May-01 19:32N 51°20' E 002°36'0 0.0
2016-May-01 18:32N 51°20' E 002°36'0 0.1
2016-May-01 17:32N 51°20' E 002°36'0 0.0
2016-May-01 16:29N 51°20' E 002°36'0 0.0
2016-May-01 15:26N 51°20' E 002°36'0 0.0
2016-May-01 14:29N 51°20' E 002°36'0 0.0
2016-May-01 13:23N 51°20' E 002°36'1 0.9
2016-May-01 12:33N 51°20' E 002°35'9 9.2
2016-May-01 11:33N 51°19' E 002°20'1010.2
2016-May-01 10:33N 51°14' E 002°06'1110.6
2016-May-01 09:33N 51°09' E 001°51'1110.8
2016-May-01 08:33N 51°01' E 001°39'1211.8
2016-May-01 07:33N 50°52' E 001°27'4410.7
2016-May-01 03:25N 50°24' E 000°33'1012.0
2016-May-01 02:33N 50°22' E 000°17'1212.1
2016-May-01 01:34N 50°19' W 000°01'1211.9
2016-May-01 00:33N 50°15' W 000°19'1211.6
2016-Apr-30 23:33N 50°13' W 000°37'89 9.9
2016-Apr-30 14:33N 49°49' W 002°51'1111.3
2016-Apr-30 13:33N 49°44' W 003°06'1111.2
2016-Apr-30 12:33N 49°38' W 003°21'9011.0
2016-Apr-30 04:24N 48°52' W 005°19'359 8.7
2016-Apr-28 11:20N 43°21' W 001°57'390 8.6
2016-Apr-26 14:06N 49°46' W 003°25'713.4
2016-Apr-26 13:33N 49°50' W 003°15'1313.1
2016-Apr-26 12:33N 49°56' W 002°58'1211.8
2016-Apr-26 11:33N 50°00' W 002°40'9311.2
2016-Apr-26 03:11N 50°27' W 000°20'812.9
2016-Apr-26 02:33N 50°29' W 000°08'1212.2
2016-Apr-26 01:33N 50°33' E 000°11'1111.4
2016-Apr-26 00:33N 50°37' E 000°28'3411.0
2016-Apr-25 21:28N 50°56' E 001°12'1314.1
2016-Apr-25 20:33N 51°04' E 001°27'1616.0
2016-Apr-25 19:34N 51°15' E 001°47'1413.8
2016-Apr-25 18:33N 51°25' E 002°01'1313.4
2016-Apr-25 17:34N 51°22' E 002°22'1313.1
2016-Apr-25 16:33N 51°23' E 002°43'1414.5
2016-Apr-25 15:33N 51°22' E 003°06'5 4.5
2016-Apr-25 14:30N 51°20' E 003°13'1 0.6
2016-Apr-25 13:33N 51°19' E 003°13'0 0.0
2016-Apr-25 12:27N 51°19' E 003°13'0 0.0
2016-Apr-25 11:33N 51°19' E 003°13'0 0.0
2016-Apr-25 10:30N 51°19' E 003°13'0 0.0
2016-Apr-25 09:30N 51°19' E 003°13'0 0.0
2016-Apr-25 08:30N 51°19' E 003°13'0 0.0
2016-Apr-25 07:26N 51°19' E 003°13'0 0.0
2016-Apr-25 06:32N 51°19' E 003°13'1 0.7
2016-Apr-25 05:31N 51°19' E 003°13'0 0.0
2016-Apr-25 04:31N 51°19' E 003°13'0 0.0
2016-Apr-25 03:31N 51°19' E 003°13'0 0.0
2016-Apr-25 02:31N 51°19' E 003°13'0 0.0
2016-Apr-25 01:28N 51°19' E 003°13'0 0.0
2016-Apr-25 00:31N 51°19' E 003°13'0 0.0
2016-Apr-24 23:31N 51°19' E 003°13'0 0.0
2016-Apr-24 22:28N 51°19' E 003°13'0 0.0
2016-Apr-24 21:31N 51°19' E 003°13'0 0.0
2016-Apr-24 20:33N 51°19' E 003°13'1 1.4
2016-Apr-24 19:33N 51°20' E 003°13'7 7.3
2016-Apr-24 18:32N 51°24' E 003°03'1414.0
2016-Apr-24 17:34N 51°22' E 002°42'1010.4
2016-Apr-24 16:33N 51°21' E 002°25'9 8.9
2016-Apr-24 15:33N 51°16' E 002°13'10 9.8
2016-Apr-24 14:33N 51°11' E 001°60'  

Dump ship's entire track history